Bowman Field

About
Name: Bowman Field
Identifier:  LOU/KLOU
Local Time:  17. Sep 06:24 EDT
Location
Statistics
Flights per Day:
0 flights
Distance: 947km (588mi)
Flights delayed:
0% (0 flights per day delayed)
Delay Average: 17 minutes
Current Weather
 22 C (Humidity: 78%)
  4kt (7km/h / 4mph) from 340°
  Few clouds at 5,000 feet (1,524 meter)
  16km (10 mi.)
 METAR KLOU 170953Z AUTO 34004KT 10SM FEW050 22/18 A3005 RMK AO2 SLP169 T02170178

Current Delays

Departures
N/A
Arrivals
N/A

Destinations

Top Destinations
Airport Flights
per week
Seats
per week
  Columbus (CMH) 0 - 0 0
  Tulsa (RVS) 0 - 0 0
  Cincinnati (LUK) 0 - 0 0
  Tyler (TYR) 0 - 0 0
  Destin (DSI) 0 - 0 0
  Charlottesville (CHO) 0 - 0 0

Airlines & Planes

Top Airlines
Airline Flights
per Day
Seats
per Day
  Centennial Airlines 0 -
Top Plane Types
Model Flights Seats
Pilatus PC-12 0.2/day - 0